Time;durP1;ratioP1;P1;durP2;ratioP2;P2;SDS_P1;SDS_P2;PMS_P1;PMS_P2;Temp;Humidity;BMP_temperature;BMP_pressure;BME280_temperature;BME280_humidity;BME280_pressure;Samples;Min_cycle;Max_cycle;Signal;HPM_P1;HPM_P2
2022/03/14 00:00:47;;;;;;;9.02;4.70;;;2.90;41.70;;;;;;5053824;28;20033;-61
2022/03/14 00:03:13;;;;;;;11.60;5.25;;;2.90;41.40;;;;;;5053667;28;20040;-62
2022/03/14 00:05:39;;;;;;;10.52;4.90;;;2.80;41.50;;;;;;5053598;28;20021;-61
2022/03/14 00:08:06;;;;;;;13.85;5.55;;;2.80;41.60;;;;;;5053795;28;20119;-66
2022/03/14 00:10:34;;;;;;;10.98;5.25;;;2.80;41.50;;;;;;5053357;28;20055;-61
2022/03/14 00:13:01;;;;;;;10.63;4.70;;;2.70;41.80;;;;;;5053670;28;20115;-62
2022/03/14 00:15:32;;;;;;;11.13;4.80;;;2.70;41.80;;;;;;5053615;28;20029;-61
2022/03/14 00:18:01;;;;;;;9.65;4.95;;;2.70;42.10;;;;;;5053785;28;20029;-62
2022/03/14 00:20:28;;;;;;;11.10;4.78;;;2.70;42.20;;;;;;5053783;28;20039;-61
2022/03/14 00:22:53;;;;;;;10.05;5.00;;;2.60;42.10;;;;;;5053398;28;20040;-61
2022/03/14 00:25:19;;;;;;;9.90;5.35;;;2.60;42.30;;;;;;5053793;28;20029;-61
2022/03/14 00:27:45;;;;;;;10.65;5.15;;;2.60;42.00;;;;;;5052075;28;20025;-61
2022/03/14 00:30:12;;;;;;;9.00;4.65;;;2.60;42.20;;;;;;5052065;28;20140;-61
2022/03/14 00:32:41;;;;;;;8.52;4.78;;;2.60;42.50;;;;;;5052034;28;20033;-61
2022/03/14 00:35:07;;;;;;;9.20;4.57;;;2.60;42.50;;;;;;5055400;28;20036;-61
2022/03/14 00:37:35;;;;;;;9.95;4.65;;;2.50;42.50;;;;;;5056235;28;20127;-61
2022/03/14 00:40:02;;;;;;;9.20;5.07;;;2.50;42.60;;;;;;5057046;28;20369;-61
2022/03/14 00:42:28;;;;;;;8.55;4.68;;;2.50;42.70;;;;;;5057027;28;20484;-61
2022/03/14 00:44:54;;;;;;;9.05;4.50;;;2.50;42.80;;;;;;5055707;28;20452;-61
2022/03/14 00:47:21;;;;;;;9.88;4.60;;;2.50;43.00;;;;;;5056951;28;20122;-61
2022/03/14 00:49:47;;;;;;;13.00;4.95;;;2.50;43.00;;;;;;5055593;28;20396;-61
2022/03/14 00:52:13;;;;;;;12.57;5.60;;;2.50;43.20;;;;;;5056969;28;20021;-61
2022/03/14 00:54:39;;;;;;;12.15;4.57;;;2.40;43.30;;;;;;5055538;28;20029;-61
2022/03/14 00:57:04;;;;;;;8.02;4.32;;;2.40;43.30;;;;;;5055465;28;20366;-61
2022/03/14 00:59:30;;;;;;;8.07;4.57;;;2.30;43.60;;;;;;5056427;28;20029;-61
2022/03/14 01:01:56;;;;;;;9.82;5.90;;;2.20;44.00;;;;;;5056609;28;20032;-61
2022/03/14 01:04:22;;;;;;;8.38;4.78;;;2.20;44.00;;;;;;5056307;28;20032;-61
2022/03/14 01:06:48;;;;;;;9.95;5.28;;;2.20;43.80;;;;;;5055085;28;20048;-61
2022/03/14 01:09:14;;;;;;;9.70;5.07;;;2.20;44.10;;;;;;5056836;28;20104;-61
2022/03/14 01:11:44;;;;;;;8.85;4.15;;;2.20;44.20;;;;;;5056510;28;20218;-61
2022/03/14 01:14:11;;;;;;;11.35;5.10;;;2.20;44.20;;;;;;5056533;28;20029;-61
2022/03/14 01:16:37;;;;;;;13.77;5.03;;;2.20;44.20;;;;;;5056578;28;20029;-61
2022/03/14 01:19:04;;;;;;;8.77;4.90;;;2.20;44.30;;;;;;5055493;28;20516;-61
2022/03/14 01:21:30;;;;;;;8.95;4.93;;;2.20;44.30;;;;;;5056373;28;20476;-61
2022/03/14 01:23:57;;;;;;;11.70;5.28;;;2.20;44.40;;;;;;5056212;28;20033;-61
2022/03/14 01:26:23;;;;;;;11.55;4.72;;;2.10;44.20;;;;;;5056406;28;20079;-61
2022/03/14 01:28:49;;;;;;;13.15;4.57;;;2.10;44.30;;;;;;5056234;28;20104;-61
2022/03/14 01:31:15;;;;;;;10.18;4.88;;;2.00;44.50;;;;;;5054923;28;20036;-61
2022/03/14 01:33:41;;;;;;;12.05;5.00;;;1.90;44.80;;;;;;5056190;28;20021;-61
2022/03/14 01:36:08;;;;;;;11.15;4.50;;;1.90;44.80;;;;;;5054818;28;20037;-61
2022/03/14 01:38:33;;;;;;;12.73;4.88;;;1.90;45.00;;;;;;5054969;28;20025;-61
2022/03/14 01:40:59;;;;;;;12.13;4.40;;;1.90;45.30;;;;;;5055859;28;20037;-61
2022/03/14 01:43:26;;;;;;;10.63;4.57;;;1.90;45.40;;;;;;5054885;28;20031;-62
2022/03/14 01:46:00;;;;;;;10.18;4.57;;;2.00;45.50;;;;;;5053671;28;20029;-61
2022/03/14 01:48:26;;;;;;;9.00;4.55;;;1.90;45.40;;;;;;5054801;28;20071;-61
2022/03/14 01:50:52;;;;;;;8.65;4.45;;;1.90;45.50;;;;;;5055773;28;20032;-61
2022/03/14 01:53:20;;;;;;;10.65;4.90;;;1.90;45.70;;;;;;5055978;28;20099;-61
2022/03/14 01:55:50;;;;;;;14.10;5.18;;;1.90;45.80;;;;;;5054461;28;20029;-61
2022/03/14 01:58:16;;;;;;;13.10;5.00;;;1.80;45.90;;;;;;5055858;28;20028;-61
2022/03/14 02:00:43;;;;;;;7.50;4.32;;;1.80;45.90;;;;;;5054669;28;20025;-61
2022/03/14 02:03:09;;;;;;;11.70;4.70;;;1.80;46.10;;;;;;5055506;28;20025;-61
2022/03/14 02:05:55;;;;;;;9.43;4.43;;;1.80;46.10;;;;;;5055226;28;20099;-61
2022/03/14 02:08:20;;;;;;;8.38;4.68;;;1.70;46.40;;;;;;5053747;28;20105;-61
2022/03/14 02:10:46;;;;;;;9.90;5.45;;;1.70;46.30;;;;;;5055646;28;20033;-61
2022/03/14 02:13:12;;;;;;;10.50;4.30;;;1.60;46.50;;;;;;5055048;28;20032;-61
2022/03/14 02:15:38;;;;;;;7.47;4.75;;;1.60;46.70;;;;;;5055519;28;20510;-61
2022/03/14 02:18:05;;;;;;;8.13;4.38;;;1.60;47.00;;;;;;5055239;28;20056;-61
2022/03/14 02:20:31;;;;;;;10.25;4.60;;;1.60;47.10;;;;;;5053805;28;20036;-61
2022/03/14 02:22:57;;;;;;;12.20;5.10;;;1.70;46.90;;;;;;5055129;28;20033;-61
2022/03/14 02:25:22;;;;;;;10.73;4.70;;;1.60;47.10;;;;;;5053866;28;20021;-61
2022/03/14 02:27:48;;;;;;;8.55;4.63;;;1.60;47.40;;;;;;5055066;28;20025;-61
2022/03/14 02:30:14;;;;;;;12.35;4.32;;;1.60;47.30;;;;;;5053432;28;20028;-61
2022/03/14 02:32:41;;;;;;;12.63;4.45;;;1.70;47.40;;;;;;5054926;28;20025;-61
2022/03/14 02:35:10;;;;;;;8.07;3.60;;;1.70;47.40;;;;;;5054891;28;20033;-61
2022/03/14 02:37:37;;;;;;;9.77;4.93;;;1.60;47.50;;;;;;5055028;28;20025;-61
2022/03/14 02:40:03;;;;;;;6.20;3.70;;;1.60;47.90;;;;;;5053254;28;20029;-61
2022/03/14 02:42:29;;;;;;;9.10;4.68;;;1.60;48.00;;;;;;5054655;28;20025;-61
2022/03/14 02:44:54;;;;;;;7.85;3.80;;;1.60;48.00;;;;;;5054854;28;20040;-61
2022/03/14 02:47:20;;;;;;;7.43;4.13;;;1.60;48.30;;;;;;5054923;28;20025;-61
2022/03/14 02:49:46;;;;;;;8.23;4.20;;;1.60;48.50;;;;;;5054589;28;20543;-61
2022/03/14 02:52:11;;;;;;;9.52;3.72;;;1.60;48.70;;;;;;5053337;28;20465;-61
2022/03/14 02:54:37;;;;;;;10.93;4.68;;;1.70;48.70;;;;;;5054221;28;20025;-61
2022/03/14 02:57:05;;;;;;;7.43;4.05;;;1.60;48.90;;;;;;5054430;28;20025;-61
2022/03/14 02:59:32;;;;;;;8.55;4.22;;;1.60;49.00;;;;;;5054426;28;20025;-61
2022/03/14 03:01:58;;;;;;;7.82;4.10;;;1.60;49.20;;;;;;5054506;28;20025;-61
2022/03/14 03:04:24;;;;;;;8.52;4.45;;;1.50;49.30;;;;;;5054356;28;20079;-61
2022/03/14 03:06:49;;;;;;;7.32;4.30;;;1.60;49.60;;;;;;5054203;28;20049;-61
2022/03/14 03:09:15;;;;;;;10.85;4.55;;;1.60;49.70;;;;;;5054065;28;20057;-61
2022/03/14 03:11:41;;;;;;;8.10;4.25;;;1.50;49.80;;;;;;5054252;28;20033;-61
2022/03/14 03:14:07;;;;;;;6.90;3.75;;;1.60;49.70;;;;;;5054198;28;20354;-61
2022/03/14 03:16:34;;;;;;;8.63;4.38;;;1.60;49.90;;;;;;5052961;28;20053;-61
2022/03/14 03:19:00;;;;;;;7.00;3.88;;;1.50;49.90;;;;;;5054151;28;20457;-61
2022/03/14 03:21:26;;;;;;;7.53;4.00;;;1.50;49.90;;;;;;5053765;28;20488;-61
2022/03/14 03:23:53;;;;;;;6.53;4.28;;;1.50;50.10;;;;;;5054062;28;20139;-61
2022/03/14 03:26:19;;;;;;;7.53;4.10;;;1.50;50.10;;;;;;5052736;28;20028;-61
2022/03/14 03:28:44;;;;;;;6.35;3.60;;;1.50;50.30;;;;;;5053992;28;20032;-61
2022/03/14 03:31:19;;;;;;;9.30;4.38;;;1.50;50.60;;;;;;5052640;28;20506;-61
2022/03/14 03:33:47;;;;;;;7.90;4.00;;;1.50;50.70;;;;;;5054051;28;20029;-61
2022/03/14 03:36:31;;;;;;;7.30;4.07;;;1.40;50.80;;;;;;5052327;28;20035;-61
2022/03/14 03:38:58;;;;;;;10.55;4.60;;;1.40;51.30;;;;;;5052568;28;20040;-61
2022/03/14 03:41:24;;;;;;;8.30;4.13;;;1.40;51.80;;;;;;5052478;28;20040;-61
2022/03/14 03:43:50;;;;;;;7.20;4.10;;;1.50;51.60;;;;;;5053744;28;20063;-61
2022/03/14 03:46:16;;;;;;;7.45;4.38;;;1.40;51.80;;;;;;5053532;28;20036;-61
2022/03/14 03:48:41;;;;;;;11.68;3.90;;;1.40;52.30;;;;;;5052462;28;20021;-61
2022/03/14 03:51:07;;;;;;;12.40;4.35;;;1.40;52.80;;;;;;5052490;28;20072;-61
2022/03/14 03:53:32;;;;;;;8.20;4.70;;;1.40;52.80;;;;;;5053942;28;20025;-61
2022/03/14 03:55:58;;;;;;;7.95;4.38;;;1.40;53.20;;;;;;5052440;28;20079;-61
2022/03/14 03:58:24;;;;;;;7.35;3.90;;;1.40;53.50;;;;;;5053346;28;20159;-61
2022/03/14 04:00:50;;;;;;;7.90;3.90;;;1.30;53.90;;;;;;5053219;28;20028;-61
2022/03/14 04:03:19;;;;;;;8.93;4.07;;;1.20;54.30;;;;;;5053848;28;20029;-61
2022/03/14 04:05:45;;;;;;;8.93;4.10;;;1.20;54.70;;;;;;5052324;28;20025;-61
2022/03/14 04:08:11;;;;;;;7.00;4.00;;;1.10;55.10;;;;;;5053721;28;20140;-61
2022/03/14 04:10:38;;;;;;;8.95;4.38;;;1.10;55.00;;;;;;5055052;28;20028;-61
2022/03/14 04:13:06;;;;;;;8.70;4.43;;;1.10;55.80;;;;;;5057652;28;20035;-61
2022/03/14 04:15:42;;;;;;;9.27;4.13;;;1.10;56.20;;;;;;5057783;28;20025;-61
2022/03/14 04:18:09;;;;;;;8.73;4.28;;;1.00;56.80;;;;;;5057765;28;20032;-61
2022/03/14 04:20:36;;;;;;;10.70;4.07;;;1.00;56.70;;;;;;5056204;28;20364;-61
2022/03/14 04:23:02;;;;;;;9.10;4.35;;;1.00;57.30;;;;;;5056104;28;20457;-61
2022/03/14 04:25:28;;;;;;;9.75;4.13;;;1.00;57.30;;;;;;5057412;28;20036;-61
2022/03/14 04:27:53;;;;;;;8.32;4.63;;;1.00;57.30;;;;;;5057417;28;20527;-62
2022/03/14 04:30:19;;;;;;;9.18;4.72;;;1.00;57.40;;;;;;5057525;28;20025;-61
2022/03/14 04:32:45;;;;;;;9.43;4.75;;;1.00;57.80;;;;;;5055937;28;20036;-61
2022/03/14 04:35:10;;;;;;;9.77;4.70;;;1.00;58.30;;;;;;5057125;28;20021;-61
2022/03/14 04:37:36;;;;;;;10.85;4.50;;;1.00;58.50;;;;;;5057112;28;20025;-61
2022/03/14 04:40:03;;;;;;;7.25;4.22;;;1.00;58.50;;;;;;5055858;28;20035;-61
2022/03/14 04:42:29;;;;;;;9.13;4.20;;;1.00;58.70;;;;;;5057230;28;20068;-61
2022/03/14 04:44:54;;;;;;;10.43;4.78;;;1.00;58.50;;;;;;5055763;28;20032;-61
2022/03/14 04:47:20;;;;;;;9.93;4.55;;;1.10;58.20;;;;;;5057085;28;20068;-61
2022/03/14 04:49:46;;;;;;;9.10;4.22;;;1.10;58.50;;;;;;5056864;28;20021;-61
2022/03/14 04:52:12;;;;;;;7.03;4.40;;;1.10;58.40;;;;;;5057175;28;20025;-61
2022/03/14 04:54:39;;;;;;;8.52;4.15;;;1.10;58.40;;;;;;5056887;28;20032;-61
2022/03/14 04:57:05;;;;;;;14.02;4.70;;;1.10;58.60;;;;;;5056908;28;20021;-61
2022/03/14 04:59:30;;;;;;;9.07;4.32;;;1.00;59.60;;;;;;5055953;28;20036;-62
2022/03/14 05:01:56;;;;;;;7.43;4.50;;;1.00;60.00;;;;;;5056909;28;20513;-61
2022/03/14 05:04:22;;;;;;;10.45;4.88;;;0.90;60.10;;;;;;5055376;28;20168;-61
2022/03/14 05:06:47;;;;;;;12.23;4.85;;;1.00;60.80;;;;;;5054994;28;20072;-60
2022/03/14 05:09:13;;;;;;;6.60;4.60;;;0.90;61.30;;;;;;5056364;28;20461;-61
2022/03/14 05:11:40;;;;;;;10.35;4.40;;;0.90;61.50;;;;;;5056679;28;20029;-61
2022/03/14 05:14:08;;;;;;;11.10;4.85;;;1.70;62.90;;;;;;5055375;28;20060;-67
2022/03/14 05:16:35;;;;;;;10.48;4.57;;;0.90;63.10;;;;;;5055852;28;20021;-60
2022/03/14 05:19:00;;;;;;;9.50;4.53;;;0.90;63.70;;;;;;5056357;28;20104;-61
2022/03/14 05:21:45;;;;;;;9.10;4.68;;;0.80;68.10;;;;;;5056130;28;20109;-61
2022/03/14 05:24:10;;;;;;;8.32;4.47;;;0.70;68.40;;;;;;5054988;28;20468;-61
2022/03/14 05:26:36;;;;;;;8.77;4.65;;;0.70;68.90;;;;;;5056003;28;20032;-60
2022/03/14 05:29:02;;;;;;;10.80;5.35;;;0.60;70.90;;;;;;5056193;28;20040;-61
2022/03/14 05:31:27;;;;;;;10.65;5.30;;;0.60;74.00;;;;;;5056004;28;20056;-63
2022/03/14 05:33:53;;;;;;;9.93;4.75;;;0.50;74.10;;;;;;5056384;28;20031;-65
2022/03/14 05:36:18;;;;;;;10.90;4.72;;;0.60;72.50;;;;;;5056209;28;20052;-63
2022/03/14 05:38:45;;;;;;;9.98;5.40;;;0.60;74.40;;;;;;5056041;28;20029;-64
2022/03/14 05:41:10;;;;;;;8.80;4.68;;;0.70;73.50;;;;;;5054833;28;20025;-61
2022/03/14 05:43:39;;;;;;;11.30;4.93;;;0.70;73.60;;;;;;5056459;28;20111;-64
2022/03/14 05:46:06;;;;;;;10.20;4.47;;;0.80;73.20;;;;;;5056068;28;20147;-61
2022/03/14 05:48:35;;;;;;;10.88;4.30;;;0.80;73.60;;;;;;5056066;28;20377;-61
2022/03/14 05:51:03;;;;;;;7.75;4.72;;;0.90;73.20;;;;;;5054581;28;20465;-60
2022/03/14 05:53:30;;;;;;;10.60;5.20;;;1.70;73.10;;;;;;5054680;28;20025;-61
2022/03/14 05:55:56;;;;;;;8.50;4.53;;;0.90;72.00;;;;;;5055373;28;20106;-61
2022/03/14 05:58:22;;;;;;;9.75;5.03;;;2.30;73.10;;;;;;5054495;28;20028;-60
2022/03/14 06:00:48;;;;;;;7.88;4.00;;;1.10;72.50;;;;;;5054802;28;20032;-61
2022/03/14 06:03:15;;;;;;;11.43;5.30;;;1.00;72.80;;;;;;5055767;28;20453;-61
2022/03/14 06:05:41;;;;;;;12.07;5.18;;;1.00;72.80;;;;;;5055606;28;20025;-61
2022/03/14 06:08:06;;;;;;;10.63;5.38;;;1.00;73.60;;;;;;5055619;28;20045;-60
2022/03/14 06:10:33;;;;;;;8.40;4.90;;;2.50;76.00;;;;;;5055458;28;20036;-60
2022/03/14 06:12:59;;;;;;;10.13;5.20;;;2.20;77.30;;;;;;5055060;28;20040;-61
2022/03/14 06:15:25;;;;;;;11.68;5.28;;;1.20;75.40;;;;;;5055122;28;20029;-61
2022/03/14 06:17:51;;;;;;;10.63;5.53;;;1.20;73.90;;;;;;5055280;28;20029;-60
2022/03/14 06:20:16;;;;;;;9.93;5.22;;;1.30;74.40;;;;;;5055212;28;20036;-60
2022/03/14 06:22:46;;;;;;;11.65;5.38;;;1.60;75.10;;;;;;5055108;28;20025;-60
2022/03/14 06:25:13;;;;;;;9.75;5.07;;;1.50;73.80;;;;;;5055302;28;20450;-60
2022/03/14 06:27:39;;;;;;;12.23;4.88;;;1.90;70.10;;;;;;5054112;28;20036;-60
2022/03/14 06:30:06;;;;;;;9.32;5.63;;;2.30;67.40;;;;;;5053742;28;20060;-60
2022/03/14 06:32:41;;;;;;;10.95;5.05;;;2.80;64.80;;;;;;5052977;28;20427;-60
2022/03/14 06:35:09;;;;;;;9.38;5.22;;;3.20;63.00;;;;;;5054647;28;20082;-61
2022/03/14 06:37:35;;;;;;;7.63;4.73;;;3.60;60.20;;;;;;5054944;28;20025;-60
2022/03/14 06:40:02;;;;;;;12.35;5.60;;;3.90;58.70;;;;;;5053477;28;20362;-61
2022/03/14 06:42:29;;;;;;;13.50;6.35;;;4.20;57.10;;;;;;5054644;28;20087;-60
2022/03/14 06:44:56;;;;;;;12.23;5.85;;;4.40;56.00;;;;;;5054781;28;20068;-60
2022/03/14 06:47:22;;;;;;;10.75;6.05;;;4.50;55.50;;;;;;5053448;28;20075;-61
2022/03/14 06:49:48;;;;;;;14.40;5.65;;;4.80;55.00;;;;;;5054635;28;20029;-60
2022/03/14 06:52:14;;;;;;;11.00;5.97;;;4.80;54.30;;;;;;5055218;28;20060;-60
2022/03/14 06:54:59;;;;;;;11.02;5.55;;;5.00;54.10;;;;;;5054523;28;20025;-60
2022/03/14 06:57:25;;;;;;;9.40;5.70;;;5.20;53.40;;;;;;5054529;28;20029;-61
2022/03/14 06:59:52;;;;;;;12.88;6.00;;;5.30;53.80;;;;;;5053105;28;20032;-60
2022/03/14 07:02:17;;;;;;;12.27;6.00;;;5.40;53.30;;;;;;5054162;28;20507;-61
2022/03/14 07:04:43;;;;;;;10.45;6.53;;;5.60;53.00;;;;;;5054654;28;20033;-60
2022/03/14 07:07:10;;;;;;;11.95;6.18;;;5.60;52.70;;;;;;5054067;28;20040;-60
2022/03/14 07:09:35;;;;;;;11.55;6.95;;;5.80;52.20;;;;;;5053076;28;20032;-60
2022/03/14 07:12:03;;;;;;;11.15;5.85;;;6.10;51.60;;;;;;5054448;28;20400;-61
2022/03/14 07:14:29;;;;;;;10.10;6.38;;;6.30;51.10;;;;;;5054206;28;20029;-60
2022/03/14 07:16:54;;;;;;;8.50;5.63;;;6.60;50.40;;;;;;5054274;28;20036;-60
2022/03/14 07:19:20;;;;;;;11.18;6.25;;;6.70;49.50;;;;;;5054127;28;20021;-60
2022/03/14 07:21:46;;;;;;;8.65;5.65;;;6.90;49.60;;;;;;5054325;28;20068;-60
2022/03/14 07:24:11;;;;;;;11.02;6.18;;;7.10;49.50;;;;;;5053092;28;20033;-61
2022/03/14 07:26:37;;;;;;;11.85;6.07;;;7.00;49.20;;;;;;5054103;28;20056;-60
2022/03/14 07:29:03;;;;;;;9.07;5.55;;;7.30;49.20;;;;;;5052786;28;20025;-61
2022/03/14 07:31:29;;;;;;;8.48;5.70;;;7.70;48.20;;;;;;5053984;28;20033;-61
2022/03/14 07:33:54;;;;;;;9.20;5.70;;;8.00;48.30;;;;;;5054033;28;20067;-61
2022/03/14 07:36:20;;;;;;;11.45;6.78;;;8.30;47.10;;;;;;5053602;28;20025;-61
2022/03/14 07:38:46;;;;;;;11.13;6.38;;;8.50;46.60;;;;;;5052320;28;20060;-61
2022/03/14 07:41:12;;;;;;;7.60;5.28;;;8.70;46.00;;;;;;5053457;28;20029;-63
2022/03/14 07:43:38;;;;;;;12.52;5.43;;;9.00;45.50;;;;;;5052573;28;20107;-61
2022/03/14 07:46:05;;;;;;;10.65;5.82;;;9.00;45.60;;;;;;5054092;28;20469;-61
2022/03/14 07:48:30;;;;;;;9.48;6.28;;;8.80;46.60;;;;;;5053766;28;20021;-61
2022/03/14 07:50:56;;;;;;;10.40;6.22;;;9.00;46.00;;;;;;5053418;28;20516;-61
2022/03/14 07:53:22;;;;;;;9.25;5.60;;;9.10;45.70;;;;;;5053987;28;20082;-61
2022/03/14 07:55:48;;;;;;;12.73;5.78;;;9.30;45.90;;;;;;5053706;28;20032;-61
2022/03/14 07:58:13;;;;;;;9.93;5.55;;;9.90;45.30;;;;;;5052427;28;20021;-61
2022/03/14 08:00:39;;;;;;;12.63;6.18;;;10.50;44.00;;;;;;5053562;28;20048;-61
2022/03/14 08:03:05;;;;;;;9.50;6.15;;;10.60;43.60;;;;;;5052394;28;20033;-61
2022/03/14 08:05:31;;;;;;;9.57;6.20;;;10.70;42.80;;;;;;5052515;28;20044;-61
2022/03/14 08:07:59;;;;;;;9.25;5.75;;;10.40;43.10;;;;;;5053343;28;20048;-61
2022/03/14 08:10:25;;;;;;;9.82;5.68;;;10.20;43.70;;;;;;5053201;28;20059;-61
2022/03/14 08:12:54;;;;;;;8.60;5.38;;;9.70;44.80;;;;;;5053705;28;20029;-62
2022/03/14 08:15:25;;;;;;;8.98;5.63;;;9.40;45.90;;;;;;5052280;28;20033;-60
2022/03/14 08:17:53;;;;;;;9.15;5.40;;;9.80;45.80;;;;;;5052135;28;20021;-61
2022/03/14 08:20:19;;;;;;;11.27;5.63;;;10.00;45.30;;;;;;5035483;28;20035;-61
2022/03/14 08:22:45;;;;;;;10.43;5.13;;;10.20;45.10;;;;;;5053083;28;20080;-61
2022/03/14 08:25:11;;;;;;;8.40;5.63;;;10.60;44.40;;;;;;5053709;28;20057;-61
2022/03/14 08:27:38;;;;;;;8.85;5.90;;;11.30;43.70;;;;;;5052216;28;20029;-61
2022/03/14 08:30:05;;;;;;;8.52;5.65;;;11.80;42.50;;;;;;5053391;28;20032;-61
2022/03/14 08:32:32;;;;;;;9.73;5.53;;;11.80;41.80;;;;;;5053827;28;20040;-61
2022/03/14 08:34:59;;;;;;;10.32;6.07;;;11.80;42.20;;;;;;5035293;28;20036;-61
2022/03/14 08:37:26;;;;;;;11.55;6.20;;;11.10;42.80;;;;;;5052041;28;20025;-66
2022/03/14 08:39:51;;;;;;;10.55;5.90;;;11.40;43.00;;;;;;5052208;28;20041;-61
2022/03/14 08:42:17;;;;;;;9.57;5.65;;;11.10;43.20;;;;;;5051887;28;20412;-61
2022/03/14 08:44:43;;;;;;;7.32;5.70;;;11.60;43.10;;;;;;5053256;28;20025;-61
2022/03/14 08:47:08;;;;;;;11.40;6.15;;;12.10;42.00;;;;;;5052915;28;20029;-61
2022/03/14 08:49:34;;;;;;;9.02;5.22;;;12.00;42.00;;;;;;5053433;28;20036;-61
2022/03/14 08:52:01;;;;;;;11.13;5.65;;;12.30;41.50;;;;;;5051939;28;20025;-61
2022/03/14 08:54:26;;;;;;;7.22;5.38;;;11.90;41.50;;;;;;5053166;28;20025;-61
2022/03/14 08:56:52;;;;;;;10.40;5.55;;;12.00;42.00;;;;;;5056757;28;20025;-61
2022/03/14 08:59:18;;;;;;;12.75;5.60;;;12.50;41.60;;;;;;5055672;28;20039;-61
2022/03/14 09:01:43;;;;;;;7.85;5.78;;;13.10;40.50;;;;;;5055487;28;20465;-61
2022/03/14 09:04:09;;;;;;;11.52;5.88;;;13.50;39.30;;;;;;5056283;28;20472;-61
2022/03/14 09:06:35;;;;;;;9.32;6.10;;;13.90;38.80;;;;;;5055086;28;20041;-61
2022/03/14 09:09:02;;;;;;;10.77;6.45;;;14.30;38.00;;;;;;5056567;28;20021;-61
2022/03/14 09:11:27;;;;;;;11.52;5.72;;;14.60;37.40;;;;;;5056474;28;20107;-61
2022/03/14 09:13:54;;;;;;;9.45;6.05;;;14.80;37.00;;;;;;5055907;28;20489;-61
2022/03/14 09:16:20;;;;;;;8.93;5.95;;;14.80;36.40;;;;;;5054734;28;20071;-61
2022/03/14 09:18:46;;;;;;;8.45;5.50;;;15.20;36.30;;;;;;5056231;28;20021;-61
2022/03/14 09:21:14;;;;;;;10.95;6.00;;;15.60;35.40;;;;;;5056178;28;20051;-61
2022/03/14 09:23:41;;;;;;;7.57;6.00;;;15.60;35.00;;;;;;5054941;28;20033;-62
2022/03/14 09:26:07;;;;;;;10.55;5.38;;;16.10;34.50;;;;;;5056218;28;20117;-62
2022/03/14 09:28:33;;;;;;;11.70;6.30;;;16.30;34.20;;;;;;5054870;28;20057;-61
2022/03/14 09:30:58;;;;;;;8.73;6.05;;;16.20;33.70;;;;;;5056254;28;20025;-62
2022/03/14 09:33:24;;;;;;;10.05;5.80;;;16.50;34.10;;;;;;5056179;28;20025;-62
2022/03/14 09:35:51;;;;;;;7.05;5.50;;;16.90;33.20;;;;;;5054951;28;20033;-62
2022/03/14 09:38:17;;;;;;;8.63;5.72;;;17.00;32.80;;;;;;5054978;28;20036;-62
2022/03/14 09:40:48;;;;;;;9.30;6.28;;;17.40;32.30;;;;;;5055562;28;20025;-62
2022/03/14 09:43:18;;;;;;;10.70;6.32;;;17.50;32.30;;;;;;5055610;28;20481;-62
2022/03/14 09:45:50;;;;;;;9.65;6.18;;;17.70;31.80;;;;;;5055842;28;20066;-62
2022/03/14 09:48:17;;;;;;;6.85;6.03;;;17.30;31.60;;;;;;5055848;28;20063;-62
2022/03/14 09:50:44;;;;;;;8.93;6.38;;;17.60;31.90;;;;;;5054735;28;20075;-62
2022/03/14 09:53:15;;;;;;;13.82;5.78;;;17.90;31.60;;;;;;5054440;28;20025;-62
2022/03/14 09:55:46;;;;;;;8.63;6.15;;;18.20;31.00;;;;;;5055364;28;20480;-62
2022/03/14 09:58:13;;;;;;;9.48;6.45;;;18.20;31.10;;;;;;5056242;28;20063;-62
2022/03/14 10:00:40;;;;;;;8.18;6.10;;;18.60;30.50;;;;;;5054147;28;20029;-62
2022/03/14 10:03:05;;;;;;;8.68;6.38;;;19.00;29.90;;;;;;5055580;28;20450;-62
2022/03/14 10:05:32;;;;;;;8.07;6.22;;;19.00;29.70;;;;;;5055523;28;20031;-62
2022/03/14 10:07:58;;;;;;;8.02;5.90;;;19.10;29.70;;;;;;5054599;28;20493;-62
2022/03/14 10:10:23;;;;;;;9.90;6.00;;;18.50;29.80;;;;;;5054056;28;20033;-62
2022/03/14 10:12:53;;;;;;;6.82;4.97;;;18.70;30.00;;;;;;5055470;28;20461;-62
2022/03/14 10:15:22;;;;;;;9.48;6.05;;;19.20;29.70;;;;;;5055702;28;20029;-62
2022/03/14 10:17:48;;;;;;;7.88;5.68;;;19.90;29.10;;;;;;5055338;28;20025;-62
2022/03/14 10:20:18;;;;;;;9.40;5.93;;;20.10;28.90;;;;;;5055222;28;20035;-62
2022/03/14 10:22:44;;;;;;;9.05;6.25;;;20.00;28.60;;;;;;5053764;28;20385;-62
2022/03/14 10:25:13;;;;;;;8.70;5.68;;;19.80;28.80;;;;;;5055250;28;20017;-62
2022/03/14 10:27:40;;;;;;;8.63;6.13;;;19.60;28.80;;;;;;5054923;28;20029;-62
2022/03/14 10:30:21;;;;;;;8.55;6.35;;;19.30;28.80;;;;;;5054054;28;20032;-62
2022/03/14 10:32:48;;;;;;;9.30;5.97;;;19.00;29.10;;;;;;5054832;28;20036;-62
2022/03/14 10:35:20;;;;;;;9.52;6.07;;;19.20;29.40;;;;;;5054820;28;20060;-62
2022/03/14 10:38:07;;;;;;;9.57;6.03;;;19.40;29.00;;;;;;5053602;28;20032;-62
2022/03/14 10:40:35;;;;;;;8.15;5.75;;;19.20;29.00;;;;;;5054792;28;20040;-62
2022/03/14 10:43:01;;;;;;;11.23;5.70;;;18.90;29.30;;;;;;5054898;28;20059;-62
2022/03/14 10:45:31;;;;;;;10.23;6.32;;;19.50;29.70;;;;;;5053409;28;20032;-62
2022/03/14 10:47:58;;;;;;;11.55;6.40;;;19.90;28.90;;;;;;5054667;28;20029;-62
2022/03/14 10:50:42;;;;;;;10.88;6.25;;;19.60;28.90;;;;;;5054739;28;20080;-62
2022/03/14 10:53:16;;;;;;;10.70;6.68;;;19.60;28.90;;;;;;5054457;28;20037;-62
2022/03/14 10:55:45;;;;;;;8.90;6.25;;;20.10;28.80;;;;;;5055012;28;20414;-62
2022/03/14 10:58:24;;;;;;;8.73;6.53;;;20.50;28.70;;;;;;5054461;28;20064;-62
2022/03/14 11:00:51;;;;;;;12.07;6.97;;;20.00;28.50;;;;;;5054361;28;20025;-62
2022/03/14 11:03:28;;;;;;;12.77;7.78;;;20.50;29.00;;;;;;5054385;28;20523;-62
2022/03/14 11:05:58;;;;;;;11.45;7.65;;;20.90;28.80;;;;;;5054326;28;20488;-62
2022/03/14 11:08:43;;;;;;;12.73;8.63;;;21.80;28.30;;;;;;5052918;28;20586;-62
2022/03/14 11:11:29;;;;;;;13.75;9.23;;;21.70;28.00;;;;;;5054196;28;20036;-62
2022/03/14 11:13:56;;;;;;;15.82;10.38;;;21.80;28.30;;;;;;5052329;28;20033;-62
2022/03/14 11:16:22;;;;;;;12.45;9.13;;;21.90;28.70;;;;;;5052827;28;20050;-62
2022/03/14 11:18:49;;;;;;;14.90;10.25;;;21.90;28.80;;;;;;5053501;28;20401;-62
2022/03/14 11:21:16;;;;;;;13.45;10.00;;;21.40;29.10;;;;;;5053024;28;20040;-62
2022/03/14 11:23:49;;;;;;;23.73;11.55;;;21.70;29.30;;;;;;5054019;28;20515;-62
2022/03/14 11:26:18;;;;;;;14.38;10.07;;;20.90;29.80;;;;;;5052967;28;20025;-62
2022/03/14 11:28:46;;;;;;;12.80;10.30;;;20.90;29.90;;;;;;5052724;28;20515;-62
2022/03/14 11:31:12;;;;;;;16.70;10.05;;;21.50;29.60;;;;;;5053939;28;20079;-62
2022/03/14 11:33:38;;;;;;;14.50;10.57;;;21.60;29.60;;;;;;5054472;28;20397;-62
2022/03/14 11:36:05;;;;;;;16.02;11.18;;;21.70;29.20;;;;;;5053929;28;20101;-62
2022/03/14 11:38:32;;;;;;;15.50;11.45;;;21.20;29.70;;;;;;5053574;28;20380;-62
2022/03/14 11:40:59;;;;;;;15.65;10.63;;;21.00;29.80;;;;;;5054487;28;20123;-62
2022/03/14 11:43:25;;;;;;;16.65;11.13;;;21.10;29.70;;;;;;5055826;28;20511;-62
2022/03/14 11:45:52;;;;;;;16.08;11.40;;;21.40;29.30;;;;;;5055491;28;20033;-62
2022/03/14 11:48:19;;;;;;;16.15;11.15;;;21.00;29.80;;;;;;5054904;28;20033;-62
2022/03/14 11:50:56;;;;;;;16.02;10.77;;;20.70;30.10;;;;;;5054127;28;20024;-62
2022/03/14 11:53:27;;;;;;;18.60;10.93;;;20.20;30.50;;;;;;5053771;28;20052;-62
2022/03/14 11:56:07;;;;;;;16.50;10.15;;;20.90;30.20;;;;;;5053942;28;20484;-62
2022/03/14 11:58:40;;;;;;;14.55;10.73;;;20.80;30.00;;;;;;5052076;28;20033;-62
2022/03/14 12:01:19;;;;;;;18.40;10.60;;;21.30;29.60;;;;;;5053186;28;20037;-62
2022/03/14 12:03:52;;;;;;;15.98;10.63;;;21.90;29.50;;;;;;5052369;28;20155;-62
2022/03/14 12:07:03;;;;;;;14.95;10.98;;;22.40;29.10;;;;;;5052018;28;20032;-62
2022/03/14 12:09:29;;;;;;;16.00;10.63;;;23.00;28.80;;;;;;5052625;28;20096;-62
2022/03/14 12:11:56;;;;;;;14.63;10.68;;;22.60;28.70;;;;;;5053485;28;20029;-62
2022/03/14 12:14:42;;;;;;;16.55;10.32;;;22.40;28.70;;;;;;5053085;28;20385;-62
2022/03/14 12:17:14;;;;;;;13.85;9.85;;;22.70;28.90;;;;;;5053473;28;20036;-62
2022/03/14 12:19:51;;;;;;;22.63;10.68;;;23.10;28.70;;;;;;5052411;28;20452;-62
2022/03/14 12:22:39;;;;;;;13.15;9.55;;;23.50;28.60;;;;;;5052566;28;20428;-62
2022/03/14 12:25:07;;;;;;;10.27;7.25;;;24.30;27.90;;;;;;5052174;28;20385;-62
2022/03/14 12:27:34;;;;;;;11.33;8.63;;;24.20;26.60;;;;;;5052919;28;20457;-62
2022/03/14 12:30:24;;;;;;;16.38;8.50;;;24.70;26.50;;;;;;5053344;28;20487;-62
2022/03/14 12:32:55;;;;;;;14.93;7.65;;;24.40;26.70;;;;;;5049368;28;20086;-62
2022/03/14 12:35:22;;;;;;;11.18;7.25;;;24.40;26.00;;;;;;5055899;28;20422;-62
2022/03/14 12:37:53;;;;;;;10.15;7.35;;;24.00;26.20;;;;;;5057112;28;20083;-62
2022/03/14 12:40:21;;;;;;;15.15;7.85;;;24.40;26.00;;;;;;5056748;28;20487;-62
2022/03/14 12:42:51;;;;;;;10.05;7.45;;;23.70;26.10;;;;;;5055780;28;20033;-63
2022/03/14 12:45:44;;;;;;;11.55;6.95;;;23.30;26.60;;;;;;5056890;28;20025;-62
2022/03/14 12:48:21;;;;;;;8.57;7.18;;;23.70;26.50;;;;;;5053976;28;20059;-62
2022/03/14 12:50:53;;;;;;;12.82;8.00;;;23.90;26.40;;;;;;5056886;28;20021;-62